Medill, Missouri
Current Conditions -  °F | °C
As of 8:55 AM on Friday 28 Nov 2014 (Local Time) from KEOK Reporting Station
Clear Clear  
Wind Chill: 16°   Ceiling: Unl
Heat Index: 27°   Visibility: 10mi
Dew Point: 21°   Wind: 12mph
Humidity: 80%   Direction: 150°SSE
Pressure: 30.07"   Gusts: 18mph
Location:  40.4336°N, 91.756°W
Report Text: KEOK 281455Z AUTO 15010G16KT 10SM CLR M03/M06 A3007 RMK AO2
Loading
Personal Weather Stations






























Interactive Weather Map New forecast layout! Learn more

10-Day Weather Forecast

Advertisements
Track Severe Weather on mobile